sensor_id;sensor_type;location;lat;lon;timestamp;temperature;humidity
30063;DHT22;16889;67.864;24.990;2022-07-23T00:04:19;11.70;99.90
30063;DHT22;16889;67.864;24.990;2022-07-23T00:09:05;11.60;99.90
30063;DHT22;16889;67.864;24.990;2022-07-23T00:13:51;11.60;99.90
30063;DHT22;16889;67.864;24.990;2022-07-23T00:18:38;11.60;99.90
30063;DHT22;16889;67.864;24.990;2022-07-23T00:23:25;11.50;99.90
30063;DHT22;16889;67.864;24.990;2022-07-23T00:28:11;11.50;99.90
30063;DHT22;16889;67.864;24.990;2022-07-23T00:33:03;11.50;99.90
30063;DHT22;16889;67.864;24.990;2022-07-23T00:37:49;11.50;99.90
30063;DHT22;16889;67.864;24.990;2022-07-23T00:42:35;11.40;99.90
30063;DHT22;16889;67.864;24.990;2022-07-23T00:47:21;11.30;99.90
30063;DHT22;16889;67.864;24.990;2022-07-23T00:52:07;11.20;99.90
30063;DHT22;16889;67.864;24.990;2022-07-23T00:56:53;11.10;99.90
30063;DHT22;16889;67.864;24.990;2022-07-23T01:01:40;11.10;99.90
30063;DHT22;16889;67.864;24.990;2022-07-23T01:06:26;11.00;99.90
30063;DHT22;16889;67.864;24.990;2022-07-23T01:11:12;11.00;99.90
30063;DHT22;16889;67.864;24.990;2022-07-23T01:15:59;10.90;99.90
30063;DHT22;16889;67.864;24.990;2022-07-23T01:20:45;10.80;99.90
30063;DHT22;16889;67.864;24.990;2022-07-23T01:25:31;10.70;99.90
30063;DHT22;16889;67.864;24.990;2022-07-23T01:30:17;10.60;99.90
30063;DHT22;16889;67.864;24.990;2022-07-23T01:35:04;10.50;99.90
30063;DHT22;16889;67.864;24.990;2022-07-23T01:39:50;10.50;99.90
30063;DHT22;16889;67.864;24.990;2022-07-23T01:44:36;10.50;99.90
30063;DHT22;16889;67.864;24.990;2022-07-23T01:49:22;10.70;99.90
30063;DHT22;16889;67.864;24.990;2022-07-23T01:54:08;10.70;99.90
30063;DHT22;16889;67.864;24.990;2022-07-23T01:58:54;10.60;99.90
30063;DHT22;16889;67.864;24.990;2022-07-23T02:03:40;10.60;99.90
30063;DHT22;16889;67.864;24.990;2022-07-23T02:08:26;10.60;99.90
30063;DHT22;16889;67.864;24.990;2022-07-23T02:13:12;10.60;99.90
30063;DHT22;16889;67.864;24.990;2022-07-23T02:17:58;10.60;99.90
30063;DHT22;16889;67.864;24.990;2022-07-23T02:22:44;10.60;99.90
30063;DHT22;16889;67.864;24.990;2022-07-23T02:27:30;10.60;99.90
30063;DHT22;16889;67.864;24.990;2022-07-23T02:32:16;10.60;99.90
30063;DHT22;16889;67.864;24.990;2022-07-23T02:37:02;10.70;99.90
30063;DHT22;16889;67.864;24.990;2022-07-23T02:41:48;10.60;99.90
30063;DHT22;16889;67.864;24.990;2022-07-23T02:46:34;10.60;99.90
30063;DHT22;16889;67.864;24.990;2022-07-23T02:51:20;10.70;99.90
30063;DHT22;16889;67.864;24.990;2022-07-23T02:56:06;10.80;99.90
30063;DHT22;16889;67.864;24.990;2022-07-23T03:00:53;10.80;99.90
30063;DHT22;16889;67.864;24.990;2022-07-23T03:05:39;10.90;99.90
30063;DHT22;16889;67.864;24.990;2022-07-23T03:10:25;11.00;99.90
30063;DHT22;16889;67.864;24.990;2022-07-23T03:15:11;11.10;99.90
30063;DHT22;16889;67.864;24.990;2022-07-23T03:19:57;11.10;99.90
30063;DHT22;16889;67.864;24.990;2022-07-23T03:24:44;11.20;99.90
30063;DHT22;16889;67.864;24.990;2022-07-23T03:29:39;11.30;99.90
30063;DHT22;16889;67.864;24.990;2022-07-23T03:34:25;11.60;99.90
30063;DHT22;16889;67.864;24.990;2022-07-23T03:39:11;11.70;99.90
30063;DHT22;16889;67.864;24.990;2022-07-23T03:43:57;11.70;99.90
30063;DHT22;16889;67.864;24.990;2022-07-23T03:48:43;11.70;99.90
30063;DHT22;16889;67.864;24.990;2022-07-23T03:53:29;11.70;99.90
30063;DHT22;16889;67.864;24.990;2022-07-23T03:58:15;12.00;99.90
30063;DHT22;16889;67.864;24.990;2022-07-23T04:03:01;12.20;99.90
30063;DHT22;16889;67.864;24.990;2022-07-23T04:07:47;13.20;99.90
30063;DHT22;16889;67.864;24.990;2022-07-23T04:12:33;13.60;99.90
30063;DHT22;16889;67.864;24.990;2022-07-23T04:17:19;13.40;99.90
30063;DHT22;16889;67.864;24.990;2022-07-23T04:22:08;13.20;99.90
30063;DHT22;16889;67.864;24.990;2022-07-23T04:26:55;14.00;99.90
30063;DHT22;16889;67.864;24.990;2022-07-23T04:31:40;16.30;99.90
30063;DHT22;16889;67.864;24.990;2022-07-23T04:36:26;17.80;99.90
30063;DHT22;16889;67.864;24.990;2022-07-23T04:41:12;17.40;99.00
30063;DHT22;16889;67.864;24.990;2022-07-23T04:45:58;16.20;99.90
30063;DHT22;16889;67.864;24.990;2022-07-23T04:50:44;18.50;99.10
30063;DHT22;16889;67.864;24.990;2022-07-23T04:55:30;24.20;68.10
30063;DHT22;16889;67.864;24.990;2022-07-23T05:00:16;28.30;54.00
30063;DHT22;16889;67.864;24.990;2022-07-23T05:05:03;31.10;45.00
30063;DHT22;16889;67.864;24.990;2022-07-23T05:09:49;31.80;37.10
30063;DHT22;16889;67.864;24.990;2022-07-23T05:14:35;29.90;37.90
30063;DHT22;16889;67.864;24.990;2022-07-23T05:19:21;30.50;38.60
30063;DHT22;16889;67.864;24.990;2022-07-23T05:24:07;31.60;35.10
30063;DHT22;16889;67.864;24.990;2022-07-23T05:28:53;33.00;34.90
30063;DHT22;16889;67.864;24.990;2022-07-23T05:33:39;35.60;34.10
30063;DHT22;16889;67.864;24.990;2022-07-23T05:38:25;34.80;31.30
30063;DHT22;16889;67.864;24.990;2022-07-23T05:43:11;34.20;33.30
30063;DHT22;16889;67.864;24.990;2022-07-23T05:47:57;30.50;35.20
30063;DHT22;16889;67.864;24.990;2022-07-23T05:52:44;26.40;42.60
30063;DHT22;16889;67.864;24.990;2022-07-23T05:57:30;23.30;47.80
30063;DHT22;16889;67.864;24.990;2022-07-23T06:02:16;22.10;51.80
30063;DHT22;16889;67.864;24.990;2022-07-23T06:07:02;20.30;54.70
30063;DHT22;16889;67.864;24.990;2022-07-23T06:11:48;18.90;58.70
30063;DHT22;16889;67.864;24.990;2022-07-23T06:16:34;18.40;61.30
30063;DHT22;16889;67.864;24.990;2022-07-23T06:21:20;18.10;65.50
30063;DHT22;16889;67.864;24.990;2022-07-23T06:26:06;18.20;66.20
30063;DHT22;16889;67.864;24.990;2022-07-23T06:30:52;18.50;70.40
30063;DHT22;16889;67.864;24.990;2022-07-23T06:35:38;18.50;66.70
30063;DHT22;16889;67.864;24.990;2022-07-23T06:40:24;18.10;69.90
30063;DHT22;16889;67.864;24.990;2022-07-23T06:45:10;17.70;69.70
30063;DHT22;16889;67.864;24.990;2022-07-23T06:49:56;19.00;69.10
30063;DHT22;16889;67.864;24.990;2022-07-23T06:54:42;19.50;66.60
30063;DHT22;16889;67.864;24.990;2022-07-23T06:59:28;19.10;71.00
30063;DHT22;16889;67.864;24.990;2022-07-23T07:04:14;18.10;69.50
30063;DHT22;16889;67.864;24.990;2022-07-23T07:09:00;17.50;75.30
30063;DHT22;16889;67.864;24.990;2022-07-23T07:13:46;18.40;74.30
30063;DHT22;16889;67.864;24.990;2022-07-23T07:18:32;19.70;67.30
30063;DHT22;16889;67.864;24.990;2022-07-23T07:23:18;20.50;64.50
30063;DHT22;16889;67.864;24.990;2022-07-23T07:28:04;21.70;60.20
30063;DHT22;16889;67.864;24.990;2022-07-23T07:32:50;22.60;56.60
30063;DHT22;16889;67.864;24.990;2022-07-23T07:37:36;22.60;56.10
30063;DHT22;16889;67.864;24.990;2022-07-23T07:42:22;21.90;56.50
30063;DHT22;16889;67.864;24.990;2022-07-23T07:47:08;21.60;56.60
30063;DHT22;16889;67.864;24.990;2022-07-23T07:51:54;22.70;56.40
30063;DHT22;16889;67.864;24.990;2022-07-23T07:56:40;23.10;58.80
30063;DHT22;16889;67.864;24.990;2022-07-23T08:01:26;21.40;61.30
30063;DHT22;16889;67.864;24.990;2022-07-23T08:06:12;20.20;63.60
30063;DHT22;16889;67.864;24.990;2022-07-23T08:10:58;19.00;66.70
30063;DHT22;16889;67.864;24.990;2022-07-23T08:15:44;18.30;70.60
30063;DHT22;16889;67.864;24.990;2022-07-23T08:20:30;18.30;71.20
30063;DHT22;16889;67.864;24.990;2022-07-23T08:25:20;19.90;65.30
30063;DHT22;16889;67.864;24.990;2022-07-23T08:30:07;22.50;57.60
30063;DHT22;16889;67.864;24.990;2022-07-23T08:34:53;24.30;53.00
30063;DHT22;16889;67.864;24.990;2022-07-23T08:39:39;24.90;52.00
30063;DHT22;16889;67.864;24.990;2022-07-23T08:44:25;23.10;53.70
30063;DHT22;16889;67.864;24.990;2022-07-23T08:49:12;23.20;54.90
30063;DHT22;16889;67.864;24.990;2022-07-23T08:53:58;22.30;56.80
30063;DHT22;16889;67.864;24.990;2022-07-23T08:58:45;21.00;61.90
30063;DHT22;16889;67.864;24.990;2022-07-23T09:03:32;20.30;60.60
30063;DHT22;16889;67.864;24.990;2022-07-23T09:08:21;20.20;64.20
30063;DHT22;16889;67.864;24.990;2022-07-23T09:13:24;20.80;62.40
30063;DHT22;16889;67.864;24.990;2022-07-23T09:18:10;20.10;65.40
30063;DHT22;16889;67.864;24.990;2022-07-23T09:23:01;20.10;65.60
30063;DHT22;16889;67.864;24.990;2022-07-23T09:32:35;19.70;71.30
30063;DHT22;16889;67.864;24.990;2022-07-23T09:37:21;19.20;67.00
30063;DHT22;16889;67.864;24.990;2022-07-23T09:42:24;18.40;70.10
30063;DHT22;16889;67.864;24.990;2022-07-23T09:47:11;18.40;75.90
30063;DHT22;16889;67.864;24.990;2022-07-23T09:52:01;19.50;69.90
30063;DHT22;16889;67.864;24.990;2022-07-23T09:56:48;19.50;70.40
30063;DHT22;16889;67.864;24.990;2022-07-23T10:01:34;19.20;69.40
30063;DHT22;16889;67.864;24.990;2022-07-23T10:06:21;18.80;73.60
30063;DHT22;16889;67.864;24.990;2022-07-23T10:11:09;19.50;67.70
30063;DHT22;16889;67.864;24.990;2022-07-23T10:15:55;19.20;73.90
30063;DHT22;16889;67.864;24.990;2022-07-23T10:20:41;19.20;75.00
30063;DHT22;16889;67.864;24.990;2022-07-23T10:36:07;21.30;68.40
30063;DHT22;16889;67.864;24.990;2022-07-23T10:41:00;22.30;63.20
30063;DHT22;16889;67.864;24.990;2022-07-23T10:45:47;21.40;64.10
30063;DHT22;16889;67.864;24.990;2022-07-23T10:50:33;20.20;67.30
30063;DHT22;16889;67.864;24.990;2022-07-23T11:00:15;20.00;70.00
30063;DHT22;16889;67.864;24.990;2022-07-23T11:05:13;21.20;65.30
30063;DHT22;16889;67.864;24.990;2022-07-23T11:09:59;20.50;67.60
30063;DHT22;16889;67.864;24.990;2022-07-23T11:15:02;19.60;76.30
30063;DHT22;16889;67.864;24.990;2022-07-23T11:24:55;19.00;79.10
30063;DHT22;16889;67.864;24.990;2022-07-23T11:29:43;19.10;77.80
30063;DHT22;16889;67.864;24.990;2022-07-23T11:34:42;19.20;74.70
30063;DHT22;16889;67.864;24.990;2022-07-23T11:39:32;19.10;72.50
30063;DHT22;16889;67.864;24.990;2022-07-23T11:44:29;19.60;71.00
30063;DHT22;16889;67.864;24.990;2022-07-23T11:49:15;19.70;67.30
30063;DHT22;16889;67.864;24.990;2022-07-23T11:54:07;19.40;69.60
30063;DHT22;16889;67.864;24.990;2022-07-23T11:58:55;19.20;70.20
30063;DHT22;16889;67.864;24.990;2022-07-23T12:03:50;19.10;73.80
30063;DHT22;16889;67.864;24.990;2022-07-23T12:08:41;19.30;73.60
30063;DHT22;16889;67.864;24.990;2022-07-23T12:13:27;19.40;73.50
30063;DHT22;16889;67.864;24.990;2022-07-23T12:18:22;19.40;72.30
30063;DHT22;16889;67.864;24.990;2022-07-23T12:23:11;19.60;73.00
30063;DHT22;16889;67.864;24.990;2022-07-23T12:28:07;20.30;67.10
30063;DHT22;16889;67.864;24.990;2022-07-23T12:32:56;19.90;72.70
30063;DHT22;16889;67.864;24.990;2022-07-23T12:37:44;19.00;75.80
30063;DHT22;16889;67.864;24.990;2022-07-23T12:42:41;19.30;74.30
30063;DHT22;16889;67.864;24.990;2022-07-23T12:47:27;19.70;74.10
30063;DHT22;16889;67.864;24.990;2022-07-23T12:52:17;20.20;69.50
30063;DHT22;16889;67.864;24.990;2022-07-23T12:57:03;20.60;66.70
30063;DHT22;16889;67.864;24.990;2022-07-23T13:01:56;20.60;64.30
30063;DHT22;16889;67.864;24.990;2022-07-23T13:06:56;20.50;65.60
30063;DHT22;16889;67.864;24.990;2022-07-23T13:11:50;20.60;64.90
30063;DHT22;16889;67.864;24.990;2022-07-23T13:16:36;20.50;66.40
30063;DHT22;16889;67.864;24.990;2022-07-23T13:21:23;20.50;63.30
30063;DHT22;16889;67.864;24.990;2022-07-23T13:26:09;20.80;66.10
30063;DHT22;16889;67.864;24.990;2022-07-23T13:30:55;20.20;67.40
30063;DHT22;16889;67.864;24.990;2022-07-23T13:35:42;19.30;70.30
30063;DHT22;16889;67.864;24.990;2022-07-23T13:40:28;18.90;75.00
30063;DHT22;16889;67.864;24.990;2022-07-23T13:45:14;18.40;80.10
30063;DHT22;16889;67.864;24.990;2022-07-23T13:50:00;17.90;79.40
30063;DHT22;16889;67.864;24.990;2022-07-23T13:54:46;17.70;81.00
30063;DHT22;16889;67.864;24.990;2022-07-23T13:59:32;17.50;81.70
30063;DHT22;16889;67.864;24.990;2022-07-23T14:04:18;17.60;78.70
30063;DHT22;16889;67.864;24.990;2022-07-23T14:09:04;17.80;75.30
30063;DHT22;16889;67.864;24.990;2022-07-23T14:13:50;18.00;78.60
30063;DHT22;16889;67.864;24.990;2022-07-23T14:18:36;18.20;80.40
30063;DHT22;16889;67.864;24.990;2022-07-23T14:23:22;18.40;77.60
30063;DHT22;16889;67.864;24.990;2022-07-23T14:28:08;18.10;77.90
30063;DHT22;16889;67.864;24.990;2022-07-23T14:32:55;18.20;78.60
30063;DHT22;16889;67.864;24.990;2022-07-23T14:37:41;17.90;79.90
30063;DHT22;16889;67.864;24.990;2022-07-23T14:42:26;17.70;78.90
30063;DHT22;16889;67.864;24.990;2022-07-23T14:47:13;17.80;79.10
30063;DHT22;16889;67.864;24.990;2022-07-23T14:51:59;18.10;81.10
30063;DHT22;16889;67.864;24.990;2022-07-23T14:56:45;18.80;76.10
30063;DHT22;16889;67.864;24.990;2022-07-23T15:01:32;19.10;73.10
30063;DHT22;16889;67.864;24.990;2022-07-23T15:06:18;19.20;70.70
30063;DHT22;16889;67.864;24.990;2022-07-23T15:11:04;19.20;71.70
30063;DHT22;16889;67.864;24.990;2022-07-23T15:15:50;19.10;72.60
30063;DHT22;16889;67.864;24.990;2022-07-23T15:20:36;19.20;68.60
30063;DHT22;16889;67.864;24.990;2022-07-23T15:25:23;18.70;73.10
30063;DHT22;16889;67.864;24.990;2022-07-23T15:30:10;18.70;75.70
30063;DHT22;16889;67.864;24.990;2022-07-23T15:34:56;19.00;72.60
30063;DHT22;16889;67.864;24.990;2022-07-23T15:39:42;19.00;72.30
30063;DHT22;16889;67.864;24.990;2022-07-23T15:44:28;18.90;76.70
30063;DHT22;16889;67.864;24.990;2022-07-23T15:49:14;18.70;74.30
30063;DHT22;16889;67.864;24.990;2022-07-23T15:54:00;18.50;74.60
30063;DHT22;16889;67.864;24.990;2022-07-23T15:58:46;18.10;76.10
30063;DHT22;16889;67.864;24.990;2022-07-23T16:03:34;18.10;75.40
30063;DHT22;16889;67.864;24.990;2022-07-23T16:08:20;18.30;78.70
30063;DHT22;16889;67.864;24.990;2022-07-23T16:13:06;18.20;73.60
30063;DHT22;16889;67.864;24.990;2022-07-23T16:17:55;18.00;76.00
30063;DHT22;16889;67.864;24.990;2022-07-23T16:22:41;18.00;77.00
30063;DHT22;16889;67.864;24.990;2022-07-23T16:27:27;18.30;75.20
30063;DHT22;16889;67.864;24.990;2022-07-23T16:32:13;18.30;75.50
30063;DHT22;16889;67.864;24.990;2022-07-23T16:36:59;18.20;77.90
30063;DHT22;16889;67.864;24.990;2022-07-23T16:41:45;18.00;77.00
30063;DHT22;16889;67.864;24.990;2022-07-23T16:46:31;17.80;75.80
30063;DHT22;16889;67.864;24.990;2022-07-23T16:51:17;17.50;75.60
30063;DHT22;16889;67.864;24.990;2022-07-23T16:56:04;17.50;79.60
30063;DHT22;16889;67.864;24.990;2022-07-23T17:00:51;17.70;77.10
30063;DHT22;16889;67.864;24.990;2022-07-23T17:05:37;17.70;78.10
30063;DHT22;16889;67.864;24.990;2022-07-23T17:10:23;17.70;78.50
30063;DHT22;16889;67.864;24.990;2022-07-23T17:15:09;17.60;77.50
30063;DHT22;16889;67.864;24.990;2022-07-23T17:19:56;17.50;77.10
30063;DHT22;16889;67.864;24.990;2022-07-23T17:24:42;17.50;72.80
30063;DHT22;16889;67.864;24.990;2022-07-23T17:29:27;17.40;76.80
30063;DHT22;16889;67.864;24.990;2022-07-23T17:34:14;17.30;73.10
30063;DHT22;16889;67.864;24.990;2022-07-23T17:39:00;17.00;74.60
30063;DHT22;16889;67.864;24.990;2022-07-23T17:43:46;16.70;76.60
30063;DHT22;16889;67.864;24.990;2022-07-23T17:48:32;16.80;80.20
30063;DHT22;16889;67.864;24.990;2022-07-23T17:53:18;16.90;78.00
30063;DHT22;16889;67.864;24.990;2022-07-23T17:58:04;17.00;79.70
30063;DHT22;16889;67.864;24.990;2022-07-23T18:02:50;17.00;83.00
30063;DHT22;16889;67.864;24.990;2022-07-23T18:07:36;16.90;83.10
30063;DHT22;16889;67.864;24.990;2022-07-23T18:12:22;17.00;81.30
30063;DHT22;16889;67.864;24.990;2022-07-23T18:17:08;16.90;80.50
30063;DHT22;16889;67.864;24.990;2022-07-23T18:21:54;16.70;81.70
30063;DHT22;16889;67.864;24.990;2022-07-23T18:26:40;16.50;85.30
30063;DHT22;16889;67.864;24.990;2022-07-23T18:31:26;16.40;88.50
30063;DHT22;16889;67.864;24.990;2022-07-23T18:36:12;16.40;89.30
30063;DHT22;16889;67.864;24.990;2022-07-23T18:40:58;16.40;90.20
30063;DHT22;16889;67.864;24.990;2022-07-23T18:45:45;16.60;88.70
30063;DHT22;16889;67.864;24.990;2022-07-23T18:50:31;16.60;87.40
30063;DHT22;16889;67.864;24.990;2022-07-23T18:55:17;16.50;88.30
30063;DHT22;16889;67.864;24.990;2022-07-23T19:00:05;16.60;81.20
30063;DHT22;16889;67.864;24.990;2022-07-23T19:04:52;16.40;82.70
30063;DHT22;16889;67.864;24.990;2022-07-23T19:09:38;16.30;83.20
30063;DHT22;16889;67.864;24.990;2022-07-23T19:14:24;16.10;84.10
30063;DHT22;16889;67.864;24.990;2022-07-23T19:19:10;15.90;85.10
30063;DHT22;16889;67.864;24.990;2022-07-23T19:23:57;15.80;86.30
30063;DHT22;16889;67.864;24.990;2022-07-23T19:28:43;15.60;88.30
30063;DHT22;16889;67.864;24.990;2022-07-23T19:33:29;15.40;89.40
30063;DHT22;16889;67.864;24.990;2022-07-23T19:38:15;15.20;90.10
30063;DHT22;16889;67.864;24.990;2022-07-23T19:43:02;14.90;90.50
30063;DHT22;16889;67.864;24.990;2022-07-23T19:47:47;14.70;91.30
30063;DHT22;16889;67.864;24.990;2022-07-23T19:52:33;14.60;91.70
30063;DHT22;16889;67.864;24.990;2022-07-23T19:57:19;14.40;92.50
30063;DHT22;16889;67.864;24.990;2022-07-23T20:02:05;14.20;93.80
30063;DHT22;16889;67.864;24.990;2022-07-23T20:06:51;14.10;94.50
30063;DHT22;16889;67.864;24.990;2022-07-23T20:11:37;14.00;95.40
30063;DHT22;16889;67.864;24.990;2022-07-23T20:16:24;13.80;97.20
30063;DHT22;16889;67.864;24.990;2022-07-23T20:21:10;13.60;98.60
30063;DHT22;16889;67.864;24.990;2022-07-23T20:25:56;13.40;99.90
30063;DHT22;16889;67.864;24.990;2022-07-23T20:30:42;13.20;99.90
30063;DHT22;16889;67.864;24.990;2022-07-23T20:35:30;13.00;99.90
30063;DHT22;16889;67.864;24.990;2022-07-23T20:40:16;12.90;99.90
30063;DHT22;16889;67.864;24.990;2022-07-23T20:45:04;12.70;99.90
30063;DHT22;16889;67.864;24.990;2022-07-23T20:49:50;12.60;99.90
30063;DHT22;16889;67.864;24.990;2022-07-23T20:54:37;12.50;99.90
30063;DHT22;16889;67.864;24.990;2022-07-23T20:59:23;12.50;99.90
30063;DHT22;16889;67.864;24.990;2022-07-23T21:04:09;12.40;99.90
30063;DHT22;16889;67.864;24.990;2022-07-23T21:08:55;12.40;99.90
30063;DHT22;16889;67.864;24.990;2022-07-23T21:13:41;12.30;99.90
30063;DHT22;16889;67.864;24.990;2022-07-23T21:18:27;12.30;99.90
30063;DHT22;16889;67.864;24.990;2022-07-23T21:23:13;12.20;99.90
30063;DHT22;16889;67.864;24.990;2022-07-23T21:27:59;12.00;99.90
30063;DHT22;16889;67.864;24.990;2022-07-23T21:32:45;11.70;99.90
30063;DHT22;16889;67.864;24.990;2022-07-23T21:37:31;11.30;99.90
30063;DHT22;16889;67.864;24.990;2022-07-23T21:42:17;11.10;99.90
30063;DHT22;16889;67.864;24.990;2022-07-23T21:47:03;10.90;99.90
30063;DHT22;16889;67.864;24.990;2022-07-23T21:51:49;10.80;99.90
30063;DHT22;16889;67.864;24.990;2022-07-23T21:56:36;10.50;99.90
30063;DHT22;16889;67.864;24.990;2022-07-23T22:01:22;10.30;99.90
30063;DHT22;16889;67.864;24.990;2022-07-23T22:06:08;10.20;99.90
30063;DHT22;16889;67.864;24.990;2022-07-23T22:10:54;10.00;99.90
30063;DHT22;16889;67.864;24.990;2022-07-23T22:15:40;10.00;99.90
30063;DHT22;16889;67.864;24.990;2022-07-23T22:20:26;9.90;99.90
30063;DHT22;16889;67.864;24.990;2022-07-23T22:25:13;9.80;99.90
30063;DHT22;16889;67.864;24.990;2022-07-23T22:29:59;9.70;99.90
30063;DHT22;16889;67.864;24.990;2022-07-23T22:34:45;9.50;99.90
30063;DHT22;16889;67.864;24.990;2022-07-23T22:39:31;9.50;99.90
30063;DHT22;16889;67.864;24.990;2022-07-23T22:44:17;9.50;99.90
30063;DHT22;16889;67.864;24.990;2022-07-23T22:49:03;9.30;99.90
30063;DHT22;16889;67.864;24.990;2022-07-23T22:53:49;9.20;99.90
30063;DHT22;16889;67.864;24.990;2022-07-23T22:58:35;9.10;99.90
30063;DHT22;16889;67.864;24.990;2022-07-23T23:03:21;9.10;99.90
30063;DHT22;16889;67.864;24.990;2022-07-23T23:08:07;9.20;99.90
30063;DHT22;16889;67.864;24.990;2022-07-23T23:12:53;9.30;99.90
30063;DHT22;16889;67.864;24.990;2022-07-23T23:17:38;9.20;99.90
30063;DHT22;16889;67.864;24.990;2022-07-23T23:22:25;9.10;99.90
30063;DHT22;16889;67.864;24.990;2022-07-23T23:27:11;9.10;99.90
30063;DHT22;16889;67.864;24.990;2022-07-23T23:31:57;8.70;99.90
30063;DHT22;16889;67.864;24.990;2022-07-23T23:36:43;8.90;99.90
30063;DHT22;16889;67.864;24.990;2022-07-23T23:41:29;9.20;99.90
30063;DHT22;16889;67.864;24.990;2022-07-23T23:46:15;9.20;99.90
30063;DHT22;16889;67.864;24.990;2022-07-23T23:51:01;9.20;99.90
30063;DHT22;16889;67.864;24.990;2022-07-23T23:55:47;9.20;99.90
